Terminal Aerodrome Forecast
Issued by NWS

Home | Current Version | Previous Version | Text Only | Print | Product List | Glossary On
Versions: 1 2 3 4 5 6 7 8 9 10 11 12 13 14 15
000
FTUS44 KBMX 220537
TAFTOI
TAF
KTOI 220537Z 2206/2306 12002KT P6SM SCT150
     FM220900 00000KT 5SM BR SKC
     FM221700 VRB03KT P6SM SCT040 PROB30 2219/2224 4SM -TSRA
      BKN040CB
     FM230000 23002KT P6SM OVC050=

USA.gov is the U.S. government's official web portal to all federal, state and local government web resources and services.